sensor_id;sensor_type;location;lat;lon;timestamp;pressure;altitude;pressure_sealevel;temperature;humidity
3250;BME280;1637;42.020;23.992;2022-07-05T00:01:15;93144.44;;;18.25;83.11
3250;BME280;1637;42.020;23.992;2022-07-05T00:03:42;93142.78;;;18.06;84.44
3250;BME280;1637;42.020;23.992;2022-07-05T00:06:08;93139.22;;;17.96;85.51
3250;BME280;1637;42.020;23.992;2022-07-05T00:08:35;93134.41;;;17.78;85.90
3250;BME280;1637;42.020;23.992;2022-07-05T00:11:02;93137.06;;;17.91;86.38
3250;BME280;1637;42.020;23.992;2022-07-05T00:13:29;93132.94;;;17.99;86.57
3250;BME280;1637;42.020;23.992;2022-07-05T00:15:56;93144.03;;;18.14;84.82
3250;BME280;1637;42.020;23.992;2022-07-05T00:18:24;93138.47;;;17.96;85.52
3250;BME280;1637;42.020;23.992;2022-07-05T00:20:51;93141.81;;;18.00;85.08
3250;BME280;1637;42.020;23.992;2022-07-05T00:23:18;93096.28;;;17.60;85.57
3250;BME280;1637;42.020;23.992;2022-07-05T00:25:44;93123.19;;;17.89;85.85
3250;BME280;1637;42.020;23.992;2022-07-05T00:28:11;93135.56;;;17.90;84.58
3250;BME280;1637;42.020;23.992;2022-07-05T00:30:39;93132.34;;;17.82;86.37
3250;BME280;1637;42.020;23.992;2022-07-05T00:33:06;93125.44;;;17.69;87.06
3250;BME280;1637;42.020;23.992;2022-07-05T00:35:34;93129.66;;;17.70;86.45
3250;BME280;1637;42.020;23.992;2022-07-05T00:38:01;93125.75;;;17.71;86.02
3250;BME280;1637;42.020;23.992;2022-07-05T00:40:28;93127.59;;;17.61;86.62
3250;BME280;1637;42.020;23.992;2022-07-05T00:42:55;93127.72;;;18.05;84.79
3250;BME280;1637;42.020;23.992;2022-07-05T00:45:21;93131.59;;;17.57;87.12
3250;BME280;1637;42.020;23.992;2022-07-05T00:47:48;93125.06;;;17.20;90.47
3250;BME280;1637;42.020;23.992;2022-07-05T00:50:15;93127.53;;;17.14;90.83
3250;BME280;1637;42.020;23.992;2022-07-05T00:52:43;93123.00;;;16.98;92.29
3250;BME280;1637;42.020;23.992;2022-07-05T00:55:10;93130.91;;;16.80;93.04
3250;BME280;1637;42.020;23.992;2022-07-05T00:57:37;93122.28;;;16.56;96.42
3250;BME280;1637;42.020;23.992;2022-07-05T01:00:06;93113.91;;;16.38;97.76
3250;BME280;1637;42.020;23.992;2022-07-05T01:02:33;93112.84;;;16.48;97.67
3250;BME280;1637;42.020;23.992;2022-07-05T01:05:00;93110.56;;;17.01;93.58
3250;BME280;1637;42.020;23.992;2022-07-05T01:07:27;93091.47;;;16.66;94.32
3250;BME280;1637;42.020;23.992;2022-07-05T01:09:56;93069.44;;;16.80;92.60
3250;BME280;1637;42.020;23.992;2022-07-05T01:12:23;93112.06;;;17.14;90.56
3250;BME280;1637;42.020;23.992;2022-07-05T01:14:50;93067.16;;;16.79;92.94
3250;BME280;1637;42.020;23.992;2022-07-05T01:17:17;93098.41;;;17.18;91.01
3250;BME280;1637;42.020;23.992;2022-07-05T01:19:44;93095.84;;;17.02;91.73
3250;BME280;1637;42.020;23.992;2022-07-05T01:22:16;93102.72;;;17.28;88.73
3250;BME280;1637;42.020;23.992;2022-07-05T01:24:45;93099.28;;;17.15;89.11
3250;BME280;1637;42.020;23.992;2022-07-05T01:27:12;93109.22;;;17.31;90.47
3250;BME280;1637;42.020;23.992;2022-07-05T01:29:40;93094.44;;;16.97;90.54
3250;BME280;1637;42.020;23.992;2022-07-05T01:32:07;93106.13;;;16.81;90.47
3250;BME280;1637;42.020;23.992;2022-07-05T01:34:37;93098.97;;;16.75;91.41
3250;BME280;1637;42.020;23.992;2022-07-05T01:37:04;93097.97;;;17.07;90.45
3250;BME280;1637;42.020;23.992;2022-07-05T01:39:31;93102.75;;;17.03;91.28
3250;BME280;1637;42.020;23.992;2022-07-05T01:42:00;93100.00;;;17.28;88.99
3250;BME280;1637;42.020;23.992;2022-07-05T01:44:26;93104.38;;;16.88;91.14
3250;BME280;1637;42.020;23.992;2022-07-05T01:46:58;93102.00;;;16.77;90.96
3250;BME280;1637;42.020;23.992;2022-07-05T01:49:29;93101.19;;;16.51;93.06
3250;BME280;1637;42.020;23.992;2022-07-05T01:52:01;93094.25;;;16.50;92.96
3250;BME280;1637;42.020;23.992;2022-07-05T01:54:29;93090.31;;;16.80;92.33
3250;BME280;1637;42.020;23.992;2022-07-05T01:56:55;93096.25;;;16.88;90.71
3250;BME280;1637;42.020;23.992;2022-07-05T01:59:24;93086.59;;;16.61;91.77
3250;BME280;1637;42.020;23.992;2022-07-05T02:01:51;93105.06;;;16.50;92.92
3250;BME280;1637;42.020;23.992;2022-07-05T02:04:18;93108.50;;;16.38;94.03
3250;BME280;1637;42.020;23.992;2022-07-05T02:06:45;93099.16;;;16.13;94.59
3250;BME280;1637;42.020;23.992;2022-07-05T02:09:12;93100.91;;;16.20;94.54
3250;BME280;1637;42.020;23.992;2022-07-05T02:11:40;93103.63;;;16.20;94.70
3250;BME280;1637;42.020;23.992;2022-07-05T02:14:07;93105.25;;;16.01;95.76
3250;BME280;1637;42.020;23.992;2022-07-05T02:16:36;93107.59;;;16.70;92.71
3250;BME280;1637;42.020;23.992;2022-07-05T02:19:02;93097.59;;;16.41;92.47
3250;BME280;1637;42.020;23.992;2022-07-05T02:21:29;93105.75;;;16.12;95.90
3250;BME280;1637;42.020;23.992;2022-07-05T02:23:56;93099.22;;;15.81;97.41
3250;BME280;1637;42.020;23.992;2022-07-05T02:26:23;93114.22;;;15.69;100.00
3250;BME280;1637;42.020;23.992;2022-07-05T02:28:50;93118.38;;;15.58;100.00
3250;BME280;1637;42.020;23.992;2022-07-05T02:31:17;93114.28;;;15.50;100.00
3250;BME280;1637;42.020;23.992;2022-07-05T02:33:47;93124.84;;;15.28;100.00
3250;BME280;1637;42.020;23.992;2022-07-05T02:36:13;93097.53;;;15.87;99.11
3250;BME280;1637;42.020;23.992;2022-07-05T02:38:41;93115.06;;;15.66;99.64
3250;BME280;1637;42.020;23.992;2022-07-05T02:41:09;93121.47;;;15.40;100.00
3250;BME280;1637;42.020;23.992;2022-07-05T02:43:37;93111.84;;;15.55;100.00
3250;BME280;1637;42.020;23.992;2022-07-05T02:46:05;93119.34;;;15.64;100.00
3250;BME280;1637;42.020;23.992;2022-07-05T02:48:33;93112.19;;;15.41;100.00
3250;BME280;1637;42.020;23.992;2022-07-05T02:51:02;93109.91;;;15.72;100.00
3250;BME280;1637;42.020;23.992;2022-07-05T02:53:29;93057.56;;;15.21;100.00
3250;BME280;1637;42.020;23.992;2022-07-05T02:55:56;93112.53;;;15.59;99.40
3250;BME280;1637;42.020;23.992;2022-07-05T02:58:23;93124.69;;;15.35;100.00
3250;BME280;1637;42.020;23.992;2022-07-05T03:00:50;93118.63;;;15.31;100.00
3250;BME280;1637;42.020;23.992;2022-07-05T03:03:16;93116.56;;;15.51;99.77
3250;BME280;1637;42.020;23.992;2022-07-05T03:05:44;93113.47;;;15.36;100.00
3250;BME280;1637;42.020;23.992;2022-07-05T03:08:12;93087.56;;;15.06;100.00
3250;BME280;1637;42.020;23.992;2022-07-05T03:10:39;93110.91;;;14.97;100.00
3250;BME280;1637;42.020;23.992;2022-07-05T03:13:06;93103.63;;;14.61;100.00
3250;BME280;1637;42.020;23.992;2022-07-05T03:15:33;93112.34;;;15.01;100.00
3250;BME280;1637;42.020;23.992;2022-07-05T03:17:59;93116.06;;;15.24;100.00
3250;BME280;1637;42.020;23.992;2022-07-05T03:20:26;93108.75;;;15.57;100.00
3250;BME280;1637;42.020;23.992;2022-07-05T03:22:53;93101.88;;;15.68;99.48
3250;BME280;1637;42.020;23.992;2022-07-05T03:25:21;93077.25;;;15.50;99.35
3250;BME280;1637;42.020;23.992;2022-07-05T03:27:48;93106.94;;;16.11;95.86
3250;BME280;1637;42.020;23.992;2022-07-05T03:30:15;93108.63;;;16.34;93.66
3250;BME280;1637;42.020;23.992;2022-07-05T03:32:42;93110.94;;;16.61;91.71
3250;BME280;1637;42.020;23.992;2022-07-05T03:35:08;93109.56;;;17.07;88.44
3250;BME280;1637;42.020;23.992;2022-07-05T03:37:36;93111.81;;;17.34;88.35
3250;BME280;1637;42.020;23.992;2022-07-05T03:40:03;93120.31;;;17.83;83.94
3250;BME280;1637;42.020;23.992;2022-07-05T03:42:32;93120.19;;;18.09;82.24
3250;BME280;1637;42.020;23.992;2022-07-05T03:45:00;93118.22;;;18.66;79.26
3250;BME280;1637;42.020;23.992;2022-07-05T03:47:27;93119.47;;;19.05;76.08
3250;BME280;1637;42.020;23.992;2022-07-05T03:49:54;93115.84;;;19.08;77.68
3250;BME280;1637;42.020;23.992;2022-07-05T03:52:21;93113.66;;;19.25;75.66
3250;BME280;1637;42.020;23.992;2022-07-05T03:54:48;93112.25;;;19.60;74.19
3250;BME280;1637;42.020;23.992;2022-07-05T03:57:14;93111.28;;;19.45;75.89
3250;BME280;1637;42.020;23.992;2022-07-05T03:59:43;93118.94;;;19.96;72.28
3250;BME280;1637;42.020;23.992;2022-07-05T04:02:10;93111.41;;;20.09;71.27
3250;BME280;1637;42.020;23.992;2022-07-05T04:04:37;93111.09;;;20.43;69.44
3250;BME280;1637;42.020;23.992;2022-07-05T04:07:04;93110.91;;;20.74;67.86
3250;BME280;1637;42.020;23.992;2022-07-05T04:09:31;93105.59;;;20.80;68.20
3250;BME280;1637;42.020;23.992;2022-07-05T04:11:58;93114.94;;;20.97;67.29
3250;BME280;1637;42.020;23.992;2022-07-05T04:14:24;93096.88;;;21.09;66.64
3250;BME280;1637;42.020;23.992;2022-07-05T04:16:53;93096.56;;;21.49;65.75
3250;BME280;1637;42.020;23.992;2022-07-05T04:19:19;93078.47;;;20.95;67.26
3250;BME280;1637;42.020;23.992;2022-07-05T04:21:46;93101.84;;;21.19;68.02
3250;BME280;1637;42.020;23.992;2022-07-05T04:24:13;93098.56;;;21.72;64.89
3250;BME280;1637;42.020;23.992;2022-07-05T04:26:40;93098.44;;;22.14;63.71
3250;BME280;1637;42.020;23.992;2022-07-05T04:29:07;93098.22;;;22.71;61.17
3250;BME280;1637;42.020;23.992;2022-07-05T04:31:34;93108.38;;;22.41;61.83
3250;BME280;1637;42.020;23.992;2022-07-05T04:34:02;93108.00;;;21.38;65.98
3250;BME280;1637;42.020;23.992;2022-07-05T04:36:29;93111.63;;;22.31;62.52
3250;BME280;1637;42.020;23.992;2022-07-05T04:38:56;93110.81;;;22.39;61.45
3250;BME280;1637;42.020;23.992;2022-07-05T04:41:23;93107.22;;;22.48;62.67
3250;BME280;1637;42.020;23.992;2022-07-05T04:43:50;93105.44;;;23.33;59.38
3250;BME280;1637;42.020;23.992;2022-07-05T04:46:18;93109.84;;;23.60;58.40
3250;BME280;1637;42.020;23.992;2022-07-05T04:48:45;93110.50;;;23.55;58.43
3250;BME280;1637;42.020;23.992;2022-07-05T04:51:13;93111.16;;;23.64;58.61
3250;BME280;1637;42.020;23.992;2022-07-05T04:53:40;93114.84;;;23.82;58.59
3250;BME280;1637;42.020;23.992;2022-07-05T04:56:07;93103.03;;;24.11;57.30
3250;BME280;1637;42.020;23.992;2022-07-05T04:58:34;93069.84;;;23.62;58.21
3250;BME280;1637;42.020;23.992;2022-07-05T05:01:01;93137.97;;;23.16;59.29
3250;BME280;1637;42.020;23.992;2022-07-05T05:03:28;93113.56;;;23.27;59.73
3250;BME280;1637;42.020;23.992;2022-07-05T05:05:55;93113.78;;;23.59;58.91
3250;BME280;1637;42.020;23.992;2022-07-05T05:08:23;93103.78;;;24.52;56.70
3250;BME280;1637;42.020;23.992;2022-07-05T05:10:50;93108.28;;;24.81;55.66
3250;BME280;1637;42.020;23.992;2022-07-05T05:13:16;93099.75;;;25.30;54.24
3250;BME280;1637;42.020;23.992;2022-07-05T05:15:43;93099.47;;;24.45;55.64
3250;BME280;1637;42.020;23.992;2022-07-05T05:18:11;93078.94;;;23.94;57.73
3250;BME280;1637;42.020;23.992;2022-07-05T05:20:38;93097.56;;;24.57;56.61
3250;BME280;1637;42.020;23.992;2022-07-05T05:23:05;93106.78;;;25.06;54.73
3250;BME280;1637;42.020;23.992;2022-07-05T05:25:33;93099.91;;;25.21;53.31
3250;BME280;1637;42.020;23.992;2022-07-05T05:28:02;93110.28;;;25.75;53.22
3250;BME280;1637;42.020;23.992;2022-07-05T05:30:29;93109.94;;;26.04;52.18
3250;BME280;1637;42.020;23.992;2022-07-05T05:32:57;93106.91;;;25.59;52.66
3250;BME280;1637;42.020;23.992;2022-07-05T05:35:26;93115.69;;;26.06;51.70
3250;BME280;1637;42.020;23.992;2022-07-05T05:37:55;93113.25;;;25.34;53.76
3250;BME280;1637;42.020;23.992;2022-07-05T05:40:23;93110.59;;;25.14;54.58
3250;BME280;1637;42.020;23.992;2022-07-05T05:42:52;93106.22;;;24.76;55.91
3250;BME280;1637;42.020;23.992;2022-07-05T05:45:20;93087.53;;;24.74;56.25
3250;BME280;1637;42.020;23.992;2022-07-05T05:47:48;93099.06;;;25.41;55.08
3250;BME280;1637;42.020;23.992;2022-07-05T05:50:19;93099.66;;;25.93;54.67
3250;BME280;1637;42.020;23.992;2022-07-05T05:52:47;93068.25;;;26.06;53.47
3250;BME280;1637;42.020;23.992;2022-07-05T05:55:14;93094.09;;;26.30;52.25
3250;BME280;1637;42.020;23.992;2022-07-05T05:57:41;93092.16;;;26.53;52.32
3250;BME280;1637;42.020;23.992;2022-07-05T06:00:11;93104.75;;;27.66;50.05
3250;BME280;1637;42.020;23.992;2022-07-05T06:02:38;93103.75;;;27.35;51.16
3250;BME280;1637;42.020;23.992;2022-07-05T06:05:06;93098.50;;;27.26;51.36
3250;BME280;1637;42.020;23.992;2022-07-05T06:07:47;93102.19;;;26.84;51.42
3250;BME280;1637;42.020;23.992;2022-07-05T06:10:19;93098.00;;;27.56;49.42
3250;BME280;1637;42.020;23.992;2022-07-05T06:12:46;93096.25;;;27.25;50.23
3250;BME280;1637;42.020;23.992;2022-07-05T06:15:15;93105.00;;;27.12;49.91
3250;BME280;1637;42.020;23.992;2022-07-05T06:17:42;93095.50;;;27.35;49.23
3250;BME280;1637;42.020;23.992;2022-07-05T06:20:12;93104.13;;;28.18;47.19
3250;BME280;1637;42.020;23.992;2022-07-05T06:22:39;93111.44;;;27.98;47.55
3250;BME280;1637;42.020;23.992;2022-07-05T06:25:07;93102.63;;;28.17;48.18
3250;BME280;1637;42.020;23.992;2022-07-05T06:27:38;93095.97;;;28.53;47.43
3250;BME280;1637;42.020;23.992;2022-07-05T06:30:06;93097.28;;;27.61;48.37
3250;BME280;1637;42.020;23.992;2022-07-05T06:32:35;93082.63;;;26.32;49.89
3250;BME280;1637;42.020;23.992;2022-07-05T06:35:02;93079.44;;;25.48;52.98
3250;BME280;1637;42.020;23.992;2022-07-05T06:37:40;93052.44;;;25.84;52.90
3250;BME280;1637;42.020;23.992;2022-07-05T06:40:10;93084.44;;;27.86;48.84
3250;BME280;1637;42.020;23.992;2022-07-05T06:42:37;93076.25;;;28.44;46.61
3250;BME280;1637;42.020;23.992;2022-07-05T06:45:05;93082.28;;;29.79;44.17
3250;BME280;1637;42.020;23.992;2022-07-05T06:47:33;93084.25;;;30.08;42.57
3250;BME280;1637;42.020;23.992;2022-07-05T06:50:01;93071.00;;;29.17;44.93
3250;BME280;1637;42.020;23.992;2022-07-05T06:52:29;93077.16;;;30.13;41.72
3250;BME280;1637;42.020;23.992;2022-07-05T06:54:56;93090.03;;;30.29;41.30
3250;BME280;1637;42.020;23.992;2022-07-05T06:57:24;93076.06;;;29.48;45.41
3250;BME280;1637;42.020;23.992;2022-07-05T06:59:51;93087.56;;;30.25;43.46
3250;BME280;1637;42.020;23.992;2022-07-05T07:02:19;93090.97;;;30.74;40.81
3250;BME280;1637;42.020;23.992;2022-07-05T07:04:46;93074.38;;;30.93;41.47
3250;BME280;1637;42.020;23.992;2022-07-05T07:07:14;93068.53;;;30.97;40.81
3250;BME280;1637;42.020;23.992;2022-07-05T07:09:59;93071.72;;;31.65;38.79
3250;BME280;1637;42.020;23.992;2022-07-05T07:12:26;93085.75;;;32.38;35.48
3250;BME280;1637;42.020;23.992;2022-07-05T07:14:54;93080.84;;;31.60;37.15
3250;BME280;1637;42.020;23.992;2022-07-05T07:17:21;93073.69;;;32.23;35.77
3250;BME280;1637;42.020;23.992;2022-07-05T07:19:48;93079.88;;;32.29;35.61
3250;BME280;1637;42.020;23.992;2022-07-05T07:22:16;93063.25;;;31.76;36.36
3250;BME280;1637;42.020;23.992;2022-07-05T07:24:43;93075.16;;;31.71;36.48
3250;BME280;1637;42.020;23.992;2022-07-05T07:27:10;93070.59;;;31.09;36.71
3250;BME280;1637;42.020;23.992;2022-07-05T07:29:39;93066.44;;;31.35;36.37
3250;BME280;1637;42.020;23.992;2022-07-05T07:32:07;93058.84;;;31.67;36.13
3250;BME280;1637;42.020;23.992;2022-07-05T07:34:34;93069.44;;;32.95;33.43
3250;BME280;1637;42.020;23.992;2022-07-05T07:37:05;93053.22;;;31.86;34.59
3250;BME280;1637;42.020;23.992;2022-07-05T07:39:35;93060.88;;;32.59;33.81
3250;BME280;1637;42.020;23.992;2022-07-05T07:42:02;93068.47;;;32.93;32.79
3250;BME280;1637;42.020;23.992;2022-07-05T07:44:29;93065.06;;;32.26;33.54
3250;BME280;1637;42.020;23.992;2022-07-05T07:46:56;93059.00;;;32.41;34.67
3250;BME280;1637;42.020;23.992;2022-07-05T07:49:23;93063.47;;;32.91;32.33
3250;BME280;1637;42.020;23.992;2022-07-05T07:51:51;93043.34;;;32.64;35.25
3250;BME280;1637;42.020;23.992;2022-07-05T07:54:18;93061.16;;;33.37;32.06
3250;BME280;1637;42.020;23.992;2022-07-05T07:56:46;93060.63;;;32.70;33.22
3250;BME280;1637;42.020;23.992;2022-07-05T07:59:13;93058.13;;;33.14;32.46
3250;BME280;1637;42.020;23.992;2022-07-05T08:01:40;93055.31;;;33.48;33.08
3250;BME280;1637;42.020;23.992;2022-07-05T08:04:07;93053.63;;;33.94;32.29
3250;BME280;1637;42.020;23.992;2022-07-05T08:06:34;93058.44;;;33.65;31.74
3250;BME280;1637;42.020;23.992;2022-07-05T08:09:00;93051.66;;;34.02;32.20
3250;BME280;1637;42.020;23.992;2022-07-05T08:11:27;93051.59;;;33.66;33.48
3250;BME280;1637;42.020;23.992;2022-07-05T08:13:55;93053.56;;;34.15;33.11
3250;BME280;1637;42.020;23.992;2022-07-05T08:16:22;93052.91;;;33.94;32.37
3250;BME280;1637;42.020;23.992;2022-07-05T08:18:49;93048.13;;;33.53;33.30
3250;BME280;1637;42.020;23.992;2022-07-05T08:21:33;93041.75;;;33.65;33.09
3250;BME280;1637;42.020;23.992;2022-07-05T08:24:07;93044.22;;;33.97;34.07
3250;BME280;1637;42.020;23.992;2022-07-05T08:26:34;93032.38;;;34.33;34.00
3250;BME280;1637;42.020;23.992;2022-07-05T08:29:05;93057.28;;;33.82;33.80
3250;BME280;1637;42.020;23.992;2022-07-05T08:31:34;93055.75;;;34.37;34.12
3250;BME280;1637;42.020;23.992;2022-07-05T08:34:01;93046.31;;;34.12;32.48
3250;BME280;1637;42.020;23.992;2022-07-05T08:36:28;93045.34;;;33.53;35.56
3250;BME280;1637;42.020;23.992;2022-07-05T08:38:56;93036.38;;;33.05;34.02
3250;BME280;1637;42.020;23.992;2022-07-05T08:41:23;93046.94;;;32.86;34.72
3250;BME280;1637;42.020;23.992;2022-07-05T08:43:51;92925.88;;;32.20;35.13
3250;BME280;1637;42.020;23.992;2022-07-05T08:46:19;93041.97;;;33.26;34.43
3250;BME280;1637;42.020;23.992;2022-07-05T08:48:48;93047.22;;;32.95;34.12
3250;BME280;1637;42.020;23.992;2022-07-05T08:51:17;93042.00;;;33.75;33.92
3250;BME280;1637;42.020;23.992;2022-07-05T08:53:47;93039.59;;;34.28;34.23
3250;BME280;1637;42.020;23.992;2022-07-05T08:56:15;93036.75;;;34.21;33.60
3250;BME280;1637;42.020;23.992;2022-07-05T08:58:42;93037.31;;;33.70;33.95
3250;BME280;1637;42.020;23.992;2022-07-05T09:01:10;93040.19;;;34.06;33.14
3250;BME280;1637;42.020;23.992;2022-07-05T09:03:42;93031.88;;;33.36;33.97
3250;BME280;1637;42.020;23.992;2022-07-05T09:06:11;93035.47;;;33.65;34.02
3250;BME280;1637;42.020;23.992;2022-07-05T09:08:40;93035.44;;;32.08;37.18
3250;BME280;1637;42.020;23.992;2022-07-05T09:11:07;93029.81;;;32.74;35.88
3250;BME280;1637;42.020;23.992;2022-07-05T09:13:36;93023.06;;;32.69;36.36
3250;BME280;1637;42.020;23.992;2022-07-05T09:16:04;93023.88;;;32.43;36.21
3250;BME280;1637;42.020;23.992;2022-07-05T09:18:46;93023.75;;;33.17;34.95
3250;BME280;1637;42.020;23.992;2022-07-05T09:21:14;93017.69;;;32.85;35.08
3250;BME280;1637;42.020;23.992;2022-07-05T09:23:42;93022.03;;;32.93;35.84
3250;BME280;1637;42.020;23.992;2022-07-05T09:26:09;93018.41;;;32.98;35.90
3250;BME280;1637;42.020;23.992;2022-07-05T09:28:36;93004.50;;;32.77;35.90
3250;BME280;1637;42.020;23.992;2022-07-05T09:31:04;93046.22;;;32.72;36.12
3250;BME280;1637;42.020;23.992;2022-07-05T09:33:31;93000.88;;;33.24;35.74
3250;BME280;1637;42.020;23.992;2022-07-05T09:35:59;93015.59;;;32.77;36.52
3250;BME280;1637;42.020;23.992;2022-07-05T09:38:27;93005.03;;;32.29;37.10
3250;BME280;1637;42.020;23.992;2022-07-05T09:40:55;93011.75;;;32.81;35.30
3250;BME280;1637;42.020;23.992;2022-07-05T09:43:24;93004.19;;;33.02;35.74
3250;BME280;1637;42.020;23.992;2022-07-05T09:45:53;92995.47;;;33.39;34.75
3250;BME280;1637;42.020;23.992;2022-07-05T09:48:21;92984.44;;;32.71;36.82
3250;BME280;1637;42.020;23.992;2022-07-05T09:50:49;92980.66;;;32.61;36.61
3250;BME280;1637;42.020;23.992;2022-07-05T09:53:17;92986.56;;;32.78;36.24
3250;BME280;1637;42.020;23.992;2022-07-05T09:56:00;92994.56;;;33.24;35.16
3250;BME280;1637;42.020;23.992;2022-07-05T09:58:27;92978.03;;;33.18;34.76
3250;BME280;1637;42.020;23.992;2022-07-05T10:00:54;92981.44;;;32.83;36.92
3250;BME280;1637;42.020;23.992;2022-07-05T10:03:21;92980.91;;;32.71;36.12
3250;BME280;1637;42.020;23.992;2022-07-05T10:05:48;92974.63;;;32.70;35.77
3250;BME280;1637;42.020;23.992;2022-07-05T10:08:17;92977.63;;;33.14;35.70
3250;BME280;1637;42.020;23.992;2022-07-05T10:10:47;92975.88;;;33.24;35.75
3250;BME280;1637;42.020;23.992;2022-07-05T10:13:17;92976.47;;;33.51;36.14
3250;BME280;1637;42.020;23.992;2022-07-05T10:15:44;92984.47;;;32.24;36.94
3250;BME280;1637;42.020;23.992;2022-07-05T10:18:12;92980.31;;;32.31;37.06
3250;BME280;1637;42.020;23.992;2022-07-05T10:20:42;92985.13;;;32.17;37.86
3250;BME280;1637;42.020;23.992;2022-07-05T10:23:12;92984.03;;;32.33;36.47
3250;BME280;1637;42.020;23.992;2022-07-05T10:25:42;92977.25;;;32.55;36.83
3250;BME280;1637;42.020;23.992;2022-07-05T10:28:09;92980.09;;;32.16;36.65
3250;BME280;1637;42.020;23.992;2022-07-05T10:30:36;92975.13;;;32.48;37.14
3250;BME280;1637;42.020;23.992;2022-07-05T10:33:06;92976.88;;;32.38;37.67
3250;BME280;1637;42.020;23.992;2022-07-05T10:35:33;92973.41;;;31.98;37.67
3250;BME280;1637;42.020;23.992;2022-07-05T10:38:02;92960.16;;;32.17;37.74
3250;BME280;1637;42.020;23.992;2022-07-05T10:40:31;92967.53;;;32.01;37.42
3250;BME280;1637;42.020;23.992;2022-07-05T10:43:02;92961.59;;;31.97;38.14
3250;BME280;1637;42.020;23.992;2022-07-05T10:45:33;92962.47;;;31.79;38.26
3250;BME280;1637;42.020;23.992;2022-07-05T10:48:16;92961.81;;;31.86;39.36
3250;BME280;1637;42.020;23.992;2022-07-05T10:50:49;92952.72;;;32.12;39.14
3250;BME280;1637;42.020;23.992;2022-07-05T10:53:18;92958.38;;;32.06;38.24
3250;BME280;1637;42.020;23.992;2022-07-05T10:55:57;92954.69;;;31.77;38.03
3250;BME280;1637;42.020;23.992;2022-07-05T10:58:27;92944.97;;;31.58;39.26
3250;BME280;1637;42.020;23.992;2022-07-05T11:04:18;92949.44;;;31.87;38.00
3250;BME280;1637;42.020;23.992;2022-07-05T11:06:46;92944.44;;;31.86;39.44
3250;BME280;1637;42.020;23.992;2022-07-05T11:09:17;92942.84;;;31.64;39.08
3250;BME280;1637;42.020;23.992;2022-07-05T11:11:44;92943.50;;;31.70;38.76
3250;BME280;1637;42.020;23.992;2022-07-05T11:14:37;92923.88;;;31.94;39.99
3250;BME280;1637;42.020;23.992;2022-07-05T11:17:19;92942.22;;;31.71;39.98
3250;BME280;1637;42.020;23.992;2022-07-05T11:20:09;92935.72;;;31.55;39.75
3250;BME280;1637;42.020;23.992;2022-07-05T11:22:38;92939.44;;;31.44;40.22
3250;BME280;1637;42.020;23.992;2022-07-05T11:25:08;92963.50;;;31.63;39.00
3250;BME280;1637;42.020;23.992;2022-07-05T11:27:36;92953.59;;;31.81;38.96
3250;BME280;1637;42.020;23.992;2022-07-05T11:30:21;92947.19;;;31.46;39.02
3250;BME280;1637;42.020;23.992;2022-07-05T11:32:49;92942.38;;;31.20;40.29
3250;BME280;1637;42.020;23.992;2022-07-05T11:35:17;92954.13;;;31.26;39.19
3250;BME280;1637;42.020;23.992;2022-07-05T11:38:01;92949.88;;;31.65;40.94
3250;BME280;1637;42.020;23.992;2022-07-05T11:40:30;92942.53;;;31.67;39.56
3250;BME280;1637;42.020;23.992;2022-07-05T11:42:57;92946.59;;;31.80;39.96
3250;BME280;1637;42.020;23.992;2022-07-05T11:45:26;92948.56;;;32.05;39.12
3250;BME280;1637;42.020;23.992;2022-07-05T11:47:56;92952.66;;;31.78;39.92
3250;BME280;1637;42.020;23.992;2022-07-05T11:50:32;92940.50;;;31.55;38.73
3250;BME280;1637;42.020;23.992;2022-07-05T11:53:00;92946.66;;;31.61;39.54
3250;BME280;1637;42.020;23.992;2022-07-05T11:55:28;92942.97;;;31.58;40.24
3250;BME280;1637;42.020;23.992;2022-07-05T11:57:56;92938.88;;;31.59;38.63
3250;BME280;1637;42.020;23.992;2022-07-05T12:00:29;92936.56;;;31.50;38.60
3250;BME280;1637;42.020;23.992;2022-07-05T12:02:57;92928.47;;;31.52;39.54
3250;BME280;1637;42.020;23.992;2022-07-05T12:05:29;92924.31;;;31.32;40.44
3250;BME280;1637;42.020;23.992;2022-07-05T12:07:56;92918.75;;;31.19;39.42
3250;BME280;1637;42.020;23.992;2022-07-05T12:10:23;92914.31;;;31.16;39.55
3250;BME280;1637;42.020;23.992;2022-07-05T12:13:07;92921.50;;;31.06;40.64
3250;BME280;1637;42.020;23.992;2022-07-05T12:15:37;92906.84;;;31.24;39.99
3250;BME280;1637;42.020;23.992;2022-07-05T12:18:05;92916.38;;;30.97;39.18
3250;BME280;1637;42.020;23.992;2022-07-05T12:20:36;92908.81;;;30.97;40.27
3250;BME280;1637;42.020;23.992;2022-07-05T12:23:04;92916.41;;;31.10;39.69
3250;BME280;1637;42.020;23.992;2022-07-05T12:25:33;92910.53;;;30.55;40.52
3250;BME280;1637;42.020;23.992;2022-07-05T12:28:01;92922.03;;;31.04;41.34
3250;BME280;1637;42.020;23.992;2022-07-05T12:30:31;92930.47;;;31.12;40.04
3250;BME280;1637;42.020;23.992;2022-07-05T12:33:00;92931.91;;;31.00;40.26
3250;BME280;1637;42.020;23.992;2022-07-05T12:35:35;92907.03;;;30.36;40.75
3250;BME280;1637;42.020;23.992;2022-07-05T12:38:06;92926.16;;;30.34;41.09
3250;BME280;1637;42.020;23.992;2022-07-05T12:40:34;92926.00;;;30.45;40.14
3250;BME280;1637;42.020;23.992;2022-07-05T12:43:03;92914.31;;;30.52;41.30
3250;BME280;1637;42.020;23.992;2022-07-05T12:45:31;92922.41;;;30.50;39.52
3250;BME280;1637;42.020;23.992;2022-07-05T12:48:02;92909.84;;;29.98;40.95
3250;BME280;1637;42.020;23.992;2022-07-05T12:50:30;92910.44;;;30.10;40.77
3250;BME280;1637;42.020;23.992;2022-07-05T12:53:10;92901.03;;;30.00;40.35
3250;BME280;1637;42.020;23.992;2022-07-05T12:56:00;92910.41;;;29.91;40.64
3250;BME280;1637;42.020;23.992;2022-07-05T12:58:48;92920.31;;;30.37;40.06
3250;BME280;1637;42.020;23.992;2022-07-05T13:01:26;92921.16;;;30.32;40.19
3250;BME280;1637;42.020;23.992;2022-07-05T13:04:02;92921.19;;;30.14;39.76
3250;BME280;1637;42.020;23.992;2022-07-05T13:06:49;92894.16;;;30.06;39.58
3250;BME280;1637;42.020;23.992;2022-07-05T13:09:29;92915.78;;;30.21;40.15
3250;BME280;1637;42.020;23.992;2022-07-05T13:12:05;92909.84;;;30.49;39.91
3250;BME280;1637;42.020;23.992;2022-07-05T13:14:33;92900.94;;;30.56;40.44
3250;BME280;1637;42.020;23.992;2022-07-05T13:17:01;92900.56;;;30.65;39.91
3250;BME280;1637;42.020;23.992;2022-07-05T13:19:29;92902.06;;;30.66;39.13
3250;BME280;1637;42.020;23.992;2022-07-05T13:21:56;92905.41;;;30.27;40.42